sensor_id;sensor_type;location;lat;lon;timestamp;temperature;humidity
74484;SHT31;62942;52.462;10.846;2024-03-22T00:01:06;7.7;89
74484;SHT31;62942;52.462;10.846;2024-03-22T00:02:16;7.7;88.9
74484;SHT31;62942;52.462;10.846;2024-03-22T00:03:16;7.7;88.9
74484;SHT31;62942;52.462;10.846;2024-03-22T00:04:26;7.7;88.8
74484;SHT31;62942;52.462;10.846;2024-03-22T00:05:26;7.7;88.8
74484;SHT31;62942;52.462;10.846;2024-03-22T00:06:36;7.7;88.6
74484;SHT31;62942;52.462;10.846;2024-03-22T00:07:46;7.7;88.6
74484;SHT31;62942;52.462;10.846;2024-03-22T00:08:56;7.8;88.5
74484;SHT31;62942;52.462;10.846;2024-03-22T00:09:56;7.8;88.5
74484;SHT31;62942;52.462;10.846;2024-03-22T00:11:06;7.8;88.5
74484;SHT31;62942;52.462;10.846;2024-03-22T00:12:06;7.8;88.4
74484;SHT31;62942;52.462;10.846;2024-03-22T00:13:16;7.8;88.4
74484;SHT31;62942;52.462;10.846;2024-03-22T00:14:16;7.8;88.4
74484;SHT31;62942;52.462;10.846;2024-03-22T00:15:16;7.8;88.4
74484;SHT31;62942;52.462;10.846;2024-03-22T00:16:26;7.8;88.3
74484;SHT31;62942;52.462;10.846;2024-03-22T00:17:36;7.8;88.3
74484;SHT31;62942;52.462;10.846;2024-03-22T00:18:36;7.8;88.3
74484;SHT31;62942;52.462;10.846;2024-03-22T00:19:46;7.9;88.3
74484;SHT31;62942;52.462;10.846;2024-03-22T00:20:46;7.9;88.2
74484;SHT31;62942;52.462;10.846;2024-03-22T00:21:46;7.9;88.2
74484;SHT31;62942;52.462;10.846;2024-03-22T00:22:56;7.9;88.2
74484;SHT31;62942;52.462;10.846;2024-03-22T00:23:56;7.9;88.2
74484;SHT31;62942;52.462;10.846;2024-03-22T00:24:56;7.9;88.1
74484;SHT31;62942;52.462;10.846;2024-03-22T00:26:06;7.9;88.1
74484;SHT31;62942;52.462;10.846;2024-03-22T00:27:06;7.9;88
74484;SHT31;62942;52.462;10.846;2024-03-22T00:28:16;7.9;88
74484;SHT31;62942;52.462;10.846;2024-03-22T00:29:16;7.9;88
74484;SHT31;62942;52.462;10.846;2024-03-22T00:30:16;8;87.9
74484;SHT31;62942;52.462;10.846;2024-03-22T00:31:26;8;87.9
74484;SHT31;62942;52.462;10.846;2024-03-22T00:32:36;8;87.9
74484;SHT31;62942;52.462;10.846;2024-03-22T00:33:46;8;87.9
74484;SHT31;62942;52.462;10.846;2024-03-22T00:34:56;8;87.9
74484;SHT31;62942;52.462;10.846;2024-03-22T00:35:56;8;87.9
74484;SHT31;62942;52.462;10.846;2024-03-22T00:37:06;8;87.9
74484;SHT31;62942;52.462;10.846;2024-03-22T00:38:16;8;87.9
74484;SHT31;62942;52.462;10.846;2024-03-22T00:39:26;8;87.9
74484;SHT31;62942;52.462;10.846;2024-03-22T00:40:36;8;87.8
74484;SHT31;62942;52.462;10.846;2024-03-22T00:41:36;8;87.8
74484;SHT31;62942;52.462;10.846;2024-03-22T00:42:36;8.1;87.8
74484;SHT31;62942;52.462;10.846;2024-03-22T00:43:46;8.1;87.8
74484;SHT31;62942;52.462;10.846;2024-03-22T00:44:56;8.1;87.7
74484;SHT31;62942;52.462;10.846;2024-03-22T00:45:56;8.1;87.8
74484;SHT31;62942;52.462;10.846;2024-03-22T00:47:06;8.1;87.8
74484;SHT31;62942;52.462;10.846;2024-03-22T00:48:06;8.1;87.7
74484;SHT31;62942;52.462;10.846;2024-03-22T00:49:06;8.1;87.7
74484;SHT31;62942;52.462;10.846;2024-03-22T00:50:16;8.1;87.7
74484;SHT31;62942;52.462;10.846;2024-03-22T00:51:26;8.1;87.7
74484;SHT31;62942;52.462;10.846;2024-03-22T00:52:36;8.1;87.6
74484;SHT31;62942;52.462;10.846;2024-03-22T00:53:36;8.1;87.6
74484;SHT31;62942;52.462;10.846;2024-03-22T00:54:46;8.2;87.6
74484;SHT31;62942;52.462;10.846;2024-03-22T00:55:46;8.2;87.5
74484;SHT31;62942;52.462;10.846;2024-03-22T00:56:46;8.2;87.5
74484;SHT31;62942;52.462;10.846;2024-03-22T00:57:46;8.2;87.5
74484;SHT31;62942;52.462;10.846;2024-03-22T00:58:46;8.2;87.5
74484;SHT31;62942;52.462;10.846;2024-03-22T00:59:46;8.2;87.5
74484;SHT31;62942;52.462;10.846;2024-03-22T01:00:56;8.2;87.6
74484;SHT31;62942;52.462;10.846;2024-03-22T01:01:56;8.2;87.5
74484;SHT31;62942;52.462;10.846;2024-03-22T01:02:56;8.2;87.5
74484;SHT31;62942;52.462;10.846;2024-03-22T01:03:56;8.2;87.5
74484;SHT31;62942;52.462;10.846;2024-03-22T01:04:56;8.2;87.5
74484;SHT31;62942;52.462;10.846;2024-03-22T01:06:06;8.2;87.5
74484;SHT31;62942;52.462;10.846;2024-03-22T01:07:06;8.2;87.5
74484;SHT31;62942;52.462;10.846;2024-03-22T01:08:16;8.2;87.5
74484;SHT31;62942;52.462;10.846;2024-03-22T01:09:26;8.2;87.5
74484;SHT31;62942;52.462;10.846;2024-03-22T01:10:26;8.2;87.5
74484;SHT31;62942;52.462;10.846;2024-03-22T01:11:26;8.3;87.5
74484;SHT31;62942;52.462;10.846;2024-03-22T01:12:36;8.3;87.4
74484;SHT31;62942;52.462;10.846;2024-03-22T01:13:36;8.3;87.4
74484;SHT31;62942;52.462;10.846;2024-03-22T01:14:46;8.3;87.4
74484;SHT31;62942;52.462;10.846;2024-03-22T01:15:56;8.3;87.3
74484;SHT31;62942;52.462;10.846;2024-03-22T01:17:06;8.3;87.3
74484;SHT31;62942;52.462;10.846;2024-03-22T01:18:16;8.3;87.2
74484;SHT31;62942;52.462;10.846;2024-03-22T01:19:26;8.3;87.2
74484;SHT31;62942;52.462;10.846;2024-03-22T01:20:36;8.4;87.2
74484;SHT31;62942;52.462;10.846;2024-03-22T01:21:46;8.3;87.2
74484;SHT31;62942;52.462;10.846;2024-03-22T01:22:46;8.4;87.2
74484;SHT31;62942;52.462;10.846;2024-03-22T01:23:56;8.3;87.2
74484;SHT31;62942;52.462;10.846;2024-03-22T01:25:06;8.4;87.2
74484;SHT31;62942;52.462;10.846;2024-03-22T01:26:16;8.4;87.2
74484;SHT31;62942;52.462;10.846;2024-03-22T01:27:16;8.4;87.2
74484;SHT31;62942;52.462;10.846;2024-03-22T01:28:26;8.4;87.2
74484;SHT31;62942;52.462;10.846;2024-03-22T01:29:26;8.4;87.2
74484;SHT31;62942;52.462;10.846;2024-03-22T01:30:26;8.4;87.2
74484;SHT31;62942;52.462;10.846;2024-03-22T01:31:36;8.4;87.1
74484;SHT31;62942;52.462;10.846;2024-03-22T01:32:46;8.4;87.1
74484;SHT31;62942;52.462;10.846;2024-03-22T01:33:46;8.4;87
74484;SHT31;62942;52.462;10.846;2024-03-22T01:34:56;8.4;87.1
74484;SHT31;62942;52.462;10.846;2024-03-22T01:35:56;8.4;87
74484;SHT31;62942;52.462;10.846;2024-03-22T01:36:56;8.4;87
74484;SHT31;62942;52.462;10.846;2024-03-22T01:38:06;8.4;87
74484;SHT31;62942;52.462;10.846;2024-03-22T01:39:06;8.4;87
74484;SHT31;62942;52.462;10.846;2024-03-22T01:40:16;8.4;87
74484;SHT31;62942;52.462;10.846;2024-03-22T01:41:16;8.4;87
74484;SHT31;62942;52.462;10.846;2024-03-22T01:42:16;8.4;87
74484;SHT31;62942;52.462;10.846;2024-03-22T01:43:26;8.4;86.9
74484;SHT31;62942;52.462;10.846;2024-03-22T01:44:27;8.4;86.9
74484;SHT31;62942;52.462;10.846;2024-03-22T01:45:27;8.5;86.9
74484;SHT31;62942;52.462;10.846;2024-03-22T01:46:36;8.5;86.9
74484;SHT31;62942;52.462;10.846;2024-03-22T01:47:46;8.5;86.8
74484;SHT31;62942;52.462;10.846;2024-03-22T01:48:56;8.5;86.8
74484;SHT31;62942;52.462;10.846;2024-03-22T01:50:06;8.5;86.8
74484;SHT31;62942;52.462;10.846;2024-03-22T01:51:06;8.5;86.8
74484;SHT31;62942;52.462;10.846;2024-03-22T01:52:16;8.5;86.8
74484;SHT31;62942;52.462;10.846;2024-03-22T01:53:16;8.5;86.8
74484;SHT31;62942;52.462;10.846;2024-03-22T01:54:26;8.5;86.8
74484;SHT31;62942;52.462;10.846;2024-03-22T01:55:36;8.5;86.8
74484;SHT31;62942;52.462;10.846;2024-03-22T01:56:46;8.5;86.9
74484;SHT31;62942;52.462;10.846;2024-03-22T01:57:56;8.5;86.9
74484;SHT31;62942;52.462;10.846;2024-03-22T01:58:56;8.5;86.9
74484;SHT31;62942;52.462;10.846;2024-03-22T01:59:56;8.5;86.9
74484;SHT31;62942;52.462;10.846;2024-03-22T02:01:06;8.5;86.9
74484;SHT31;62942;52.462;10.846;2024-03-22T02:02:06;8.5;86.9
74484;SHT31;62942;52.462;10.846;2024-03-22T02:03:06;8.5;86.9
74484;SHT31;62942;52.462;10.846;2024-03-22T02:04:16;8.5;86.9
74484;SHT31;62942;52.462;10.846;2024-03-22T02:05:17;8.5;87
74484;SHT31;62942;52.462;10.846;2024-03-22T02:06:26;8.5;86.9
74484;SHT31;62942;52.462;10.846;2024-03-22T02:07:27;8.5;87
74484;SHT31;62942;52.462;10.846;2024-03-22T02:08:26;8.5;87
74484;SHT31;62942;52.462;10.846;2024-03-22T02:09:26;8.5;87
74484;SHT31;62942;52.462;10.846;2024-03-22T02:10:36;8.6;87
74484;SHT31;62942;52.462;10.846;2024-03-22T02:11:46;8.5;86.9
74484;SHT31;62942;52.462;10.846;2024-03-22T02:12:56;8.5;86.9
74484;SHT31;62942;52.462;10.846;2024-03-22T02:13:56;8.6;86.9
74484;SHT31;62942;52.462;10.846;2024-03-22T02:15:06;8.6;86.9
74484;SHT31;62942;52.462;10.846;2024-03-22T02:16:16;8.6;86.9
74484;SHT31;62942;52.462;10.846;2024-03-22T02:17:16;8.6;86.9
74484;SHT31;62942;52.462;10.846;2024-03-22T02:18:26;8.6;86.9
74484;SHT31;62942;52.462;10.846;2024-03-22T02:19:36;8.6;86.8
74484;SHT31;62942;52.462;10.846;2024-03-22T02:20:46;8.6;86.9
74484;SHT31;62942;52.462;10.846;2024-03-22T02:21:46;8.6;86.9
74484;SHT31;62942;52.462;10.846;2024-03-22T02:22:46;8.6;86.8
74484;SHT31;62942;52.462;10.846;2024-03-22T02:23:56;8.6;86.8
74484;SHT31;62942;52.462;10.846;2024-03-22T02:24:56;8.6;86.9
74484;SHT31;62942;52.462;10.846;2024-03-22T02:26:06;8.6;86.8
74484;SHT31;62942;52.462;10.846;2024-03-22T02:27:06;8.7;86.9
74484;SHT31;62942;52.462;10.846;2024-03-22T02:28:16;8.7;86.8
74484;SHT31;62942;52.462;10.846;2024-03-22T02:29:16;8.7;86.8
74484;SHT31;62942;52.462;10.846;2024-03-22T02:30:26;8.7;86.8
74484;SHT31;62942;52.462;10.846;2024-03-22T02:31:36;8.7;86.9
74484;SHT31;62942;52.462;10.846;2024-03-22T02:32:46;8.7;86.9
74484;SHT31;62942;52.462;10.846;2024-03-22T02:33:46;8.7;86.9
74484;SHT31;62942;52.462;10.846;2024-03-22T02:34:56;8.7;86.9
74484;SHT31;62942;52.462;10.846;2024-03-22T02:36:06;8.7;86.9
74484;SHT31;62942;52.462;10.846;2024-03-22T02:37:16;8.7;86.9
74484;SHT31;62942;52.462;10.846;2024-03-22T02:38:26;8.7;86.8
74484;SHT31;62942;52.462;10.846;2024-03-22T02:39:26;8.8;86.8
74484;SHT31;62942;52.462;10.846;2024-03-22T02:40:26;8.8;86.8
74484;SHT31;62942;52.462;10.846;2024-03-22T02:41:36;8.8;86.7
74484;SHT31;62942;52.462;10.846;2024-03-22T02:42:36;8.8;86.7
74484;SHT31;62942;52.462;10.846;2024-03-22T02:43:46;8.8;86.7
74484;SHT31;62942;52.462;10.846;2024-03-22T02:44:46;8.8;86.7
74484;SHT31;62942;52.462;10.846;2024-03-22T02:45:56;8.8;86.6
74484;SHT31;62942;52.462;10.846;2024-03-22T02:46:56;8.8;86.6
74484;SHT31;62942;52.462;10.846;2024-03-22T02:47:56;8.8;86.6
74484;SHT31;62942;52.462;10.846;2024-03-22T02:48:56;8.9;86.6
74484;SHT31;62942;52.462;10.846;2024-03-22T02:50:06;8.8;86.6
74484;SHT31;62942;52.462;10.846;2024-03-22T02:51:06;8.9;86.6
74484;SHT31;62942;52.462;10.846;2024-03-22T02:52:16;8.9;86.6
74484;SHT31;62942;52.462;10.846;2024-03-22T02:53:16;8.9;86.6
74484;SHT31;62942;52.462;10.846;2024-03-22T02:54:26;8.9;86.6
74484;SHT31;62942;52.462;10.846;2024-03-22T02:55:36;8.9;86.6
74484;SHT31;62942;52.462;10.846;2024-03-22T02:56:46;8.9;86.5
74484;SHT31;62942;52.462;10.846;2024-03-22T02:57:46;8.9;86.6
74484;SHT31;62942;52.462;10.846;2024-03-22T02:58:56;8.9;86.6
74484;SHT31;62942;52.462;10.846;2024-03-22T02:59:56;8.9;86.6
74484;SHT31;62942;52.462;10.846;2024-03-22T03:01:06;8.9;86.6
74484;SHT31;62942;52.462;10.846;2024-03-22T03:02:06;8.9;86.6
74484;SHT31;62942;52.462;10.846;2024-03-22T03:03:16;8.9;86.5
74484;SHT31;62942;52.462;10.846;2024-03-22T03:04:16;9;86.5
74484;SHT31;62942;52.462;10.846;2024-03-22T03:05:16;9;86.6
74484;SHT31;62942;52.462;10.846;2024-03-22T03:06:16;9;86.5
74484;SHT31;62942;52.462;10.846;2024-03-22T03:07:26;9;86.4
74484;SHT31;62942;52.462;10.846;2024-03-22T03:08:26;9;86.4
74484;SHT31;62942;52.462;10.846;2024-03-22T03:09:36;9;86.4
74484;SHT31;62942;52.462;10.846;2024-03-22T03:10:46;9;86.3
74484;SHT31;62942;52.462;10.846;2024-03-22T03:11:46;9.1;86.3
74484;SHT31;62942;52.462;10.846;2024-03-22T03:12:46;9;86.3
74484;SHT31;62942;52.462;10.846;2024-03-22T03:13:46;9;86.3
74484;SHT31;62942;52.462;10.846;2024-03-22T03:14:56;9;86.2
74484;SHT31;62942;52.462;10.846;2024-03-22T03:15:56;9.1;86.3
74484;SHT31;62942;52.462;10.846;2024-03-22T03:17:06;9.1;86.3
74484;SHT31;62942;52.462;10.846;2024-03-22T03:18:16;9.1;86.3
74484;SHT31;62942;52.462;10.846;2024-03-22T03:19:16;9.1;86.3
74484;SHT31;62942;52.462;10.846;2024-03-22T03:20:26;9.1;86.2
74484;SHT31;62942;52.462;10.846;2024-03-22T03:21:26;9.1;86.2
74484;SHT31;62942;52.462;10.846;2024-03-22T03:22:26;9.1;86.2
74484;SHT31;62942;52.462;10.846;2024-03-22T03:23:36;9.1;86.1
74484;SHT31;62942;52.462;10.846;2024-03-22T03:24:36;9.1;86.1
74484;SHT31;62942;52.462;10.846;2024-03-22T03:25:46;9.1;86.1
74484;SHT31;62942;52.462;10.846;2024-03-22T03:26:56;9.1;86.1
74484;SHT31;62942;52.462;10.846;2024-03-22T03:27:56;9.1;86.1
74484;SHT31;62942;52.462;10.846;2024-03-22T03:29:06;9.1;86.1
74484;SHT31;62942;52.462;10.846;2024-03-22T03:30:06;9.1;86.1
74484;SHT31;62942;52.462;10.846;2024-03-22T03:31:16;9.1;86.1
74484;SHT31;62942;52.462;10.846;2024-03-22T03:32:16;9.1;86.1
74484;SHT31;62942;52.462;10.846;2024-03-22T03:33:26;9.1;86.1
74484;SHT31;62942;52.462;10.846;2024-03-22T03:34:26;9.1;86.2
74484;SHT31;62942;52.462;10.846;2024-03-22T03:35:36;9.1;86.1
74484;SHT31;62942;52.462;10.846;2024-03-22T03:36:46;9.1;86.1
74484;SHT31;62942;52.462;10.846;2024-03-22T03:37:46;9.1;86.1
74484;SHT31;62942;52.462;10.846;2024-03-22T03:38:56;9.2;86
74484;SHT31;62942;52.462;10.846;2024-03-22T03:39:56;9.2;86
74484;SHT31;62942;52.462;10.846;2024-03-22T03:40:56;9.2;86
74484;SHT31;62942;52.462;10.846;2024-03-22T03:42:06;9.2;86
74484;SHT31;62942;52.462;10.846;2024-03-22T03:43:16;9.2;86.1
74484;SHT31;62942;52.462;10.846;2024-03-22T03:44:26;9.1;86.1
74484;SHT31;62942;52.462;10.846;2024-03-22T03:45:26;9.1;86.1
74484;SHT31;62942;52.462;10.846;2024-03-22T03:46:36;9.1;86.1
74484;SHT31;62942;52.462;10.846;2024-03-22T03:47:36;9.1;86.1
74484;SHT31;62942;52.462;10.846;2024-03-22T03:48:36;9.1;86.1
74484;SHT31;62942;52.462;10.846;2024-03-22T03:49:46;9.1;86.1
74484;SHT31;62942;52.462;10.846;2024-03-22T03:50:56;9.1;86.2
74484;SHT31;62942;52.462;10.846;2024-03-22T03:52:06;9.2;86.1
74484;SHT31;62942;52.462;10.846;2024-03-22T03:53:06;9.2;86.2
74484;SHT31;62942;52.462;10.846;2024-03-22T03:54:16;9.1;86.1
74484;SHT31;62942;52.462;10.846;2024-03-22T03:55:16;9.2;86.1
74484;SHT31;62942;52.462;10.846;2024-03-22T03:56:26;9.1;86.1
74484;SHT31;62942;52.462;10.846;2024-03-22T03:57:36;9.1;86.1
74484;SHT31;62942;52.462;10.846;2024-03-22T03:58:36;9.1;86.1
74484;SHT31;62942;52.462;10.846;2024-03-22T03:59:46;9.1;86.1
74484;SHT31;62942;52.462;10.846;2024-03-22T04:00:56;9.1;86.1
74484;SHT31;62942;52.462;10.846;2024-03-22T04:02:06;9.1;86.1
74484;SHT31;62942;52.462;10.846;2024-03-22T04:03:06;9.1;86.1
74484;SHT31;62942;52.462;10.846;2024-03-22T04:04:16;9.1;86.1
74484;SHT31;62942;52.462;10.846;2024-03-22T04:05:26;9.1;86.1
74484;SHT31;62942;52.462;10.846;2024-03-22T04:06:26;9.1;86.1
74484;SHT31;62942;52.462;10.846;2024-03-22T04:07:36;9.1;86.1
74484;SHT31;62942;52.462;10.846;2024-03-22T04:08:36;9.1;86
74484;SHT31;62942;52.462;10.846;2024-03-22T04:09:46;9.1;86.1
74484;SHT31;62942;52.462;10.846;2024-03-22T04:10:50;9.1;86.1
74484;SHT31;62942;52.462;10.846;2024-03-22T04:11:56;9.1;86.1
74484;SHT31;62942;52.462;10.846;2024-03-22T04:13:06;9.1;85.9
74484;SHT31;62942;52.462;10.846;2024-03-22T04:14:06;9.2;86
74484;SHT31;62942;52.462;10.846;2024-03-22T04:15:06;9.2;85.9
74484;SHT31;62942;52.462;10.846;2024-03-22T04:16:15;9.2;85.9
74484;SHT31;62942;52.462;10.846;2024-03-22T04:17:15;9.2;85.8
74484;SHT31;62942;52.462;10.846;2024-03-22T04:18:25;9.2;85.8
74484;SHT31;62942;52.462;10.846;2024-03-22T04:19:36;9.2;85.7
74484;SHT31;62942;52.462;10.846;2024-03-22T04:20:54;9.2;85.7
74484;SHT31;62942;52.462;10.846;2024-03-22T04:21:46;9.2;85.7
74484;SHT31;62942;52.462;10.846;2024-03-22T04:22:46;9.2;85.6
74484;SHT31;62942;52.462;10.846;2024-03-22T04:23:56;9.2;85.6
74484;SHT31;62942;52.462;10.846;2024-03-22T04:25:06;9.2;85.6
74484;SHT31;62942;52.462;10.846;2024-03-22T04:26:05;9.2;85.6
74484;SHT31;62942;52.462;10.846;2024-03-22T04:27:15;9.2;85.6
74484;SHT31;62942;52.462;10.846;2024-03-22T04:28:16;9.2;85.5
74484;SHT31;62942;52.462;10.846;2024-03-22T04:29:16;9.3;85.5
74484;SHT31;62942;52.462;10.846;2024-03-22T04:30:25;9.2;85.5
74484;SHT31;62942;52.462;10.846;2024-03-22T04:31:35;9.3;85.5
74484;SHT31;62942;52.462;10.846;2024-03-22T04:32:35;9.2;85.5
74484;SHT31;62942;52.462;10.846;2024-03-22T04:33:36;9.2;85.5
74484;SHT31;62942;52.462;10.846;2024-03-22T04:34:45;9.2;85.5
74484;SHT31;62942;52.462;10.846;2024-03-22T04:35:56;9.2;85.6
74484;SHT31;62942;52.462;10.846;2024-03-22T04:37:05;9.2;85.6
74484;SHT31;62942;52.462;10.846;2024-03-22T04:38:05;9.2;85.6
74484;SHT31;62942;52.462;10.846;2024-03-22T04:39:05;9.2;85.7
74484;SHT31;62942;52.462;10.846;2024-03-22T04:40:15;9.2;85.6
74484;SHT31;62942;52.462;10.846;2024-03-22T04:41:25;9.2;85.6
74484;SHT31;62942;52.462;10.846;2024-03-22T04:42:36;9.2;85.6
74484;SHT31;62942;52.462;10.846;2024-03-22T04:43:46;9.2;85.7
74484;SHT31;62942;52.462;10.846;2024-03-22T04:44:55;9.2;85.7
74484;SHT31;62942;52.462;10.846;2024-03-22T04:46:05;9.2;85.6
74484;SHT31;62942;52.462;10.846;2024-03-22T04:47:05;9.2;85.6
74484;SHT31;62942;52.462;10.846;2024-03-22T04:48:16;9.2;85.6
74484;SHT31;62942;52.462;10.846;2024-03-22T04:49:15;9.2;85.6
74484;SHT31;62942;52.462;10.846;2024-03-22T04:50:25;9.2;85.6
74484;SHT31;62942;52.462;10.846;2024-03-22T04:51:25;9.2;85.6
74484;SHT31;62942;52.462;10.846;2024-03-22T04:52:25;9.2;85.5
74484;SHT31;62942;52.462;10.846;2024-03-22T04:53:26;9.2;85.6
74484;SHT31;62942;52.462;10.846;2024-03-22T04:54:35;9.2;85.5
74484;SHT31;62942;52.462;10.846;2024-03-22T04:55:46;9.2;85.5
74484;SHT31;62942;52.462;10.846;2024-03-22T04:56:55;9.2;85.5
74484;SHT31;62942;52.462;10.846;2024-03-22T04:57:55;9.2;85.5
74484;SHT31;62942;52.462;10.846;2024-03-22T04:58:56;9.2;85.5
74484;SHT31;62942;52.462;10.846;2024-03-22T05:00:06;9.2;85.5
74484;SHT31;62942;52.462;10.846;2024-03-22T05:01:05;9.2;85.5
74484;SHT31;62942;52.462;10.846;2024-03-22T05:02:15;9.2;85.6
74484;SHT31;62942;52.462;10.846;2024-03-22T05:03:26;9.2;85.6
74484;SHT31;62942;52.462;10.846;2024-03-22T05:04:35;9.2;85.6
74484;SHT31;62942;52.462;10.846;2024-03-22T05:05:35;9.2;85.6
74484;SHT31;62942;52.462;10.846;2024-03-22T05:06:45;9.2;85.6
74484;SHT31;62942;52.462;10.846;2024-03-22T05:07:55;9.2;85.6
74484;SHT31;62942;52.462;10.846;2024-03-22T05:08:55;9.2;85.6
74484;SHT31;62942;52.462;10.846;2024-03-22T05:09:55;9.2;85.6
74484;SHT31;62942;52.462;10.846;2024-03-22T05:10:55;9.2;85.7
74484;SHT31;62942;52.462;10.846;2024-03-22T05:12:05;9.2;85.6
74484;SHT31;62942;52.462;10.846;2024-03-22T05:13:05;9.2;85.7
74484;SHT31;62942;52.462;10.846;2024-03-22T05:14:05;9.2;85.6
74484;SHT31;62942;52.462;10.846;2024-03-22T05:15:15;9.2;85.7
74484;SHT31;62942;52.462;10.846;2024-03-22T05:16:25;9.2;85.7
74484;SHT31;62942;52.462;10.846;2024-03-22T05:17:25;9.2;85.7
74484;SHT31;62942;52.462;10.846;2024-03-22T05:18:35;9.2;85.7
74484;SHT31;62942;52.462;10.846;2024-03-22T05:19:35;9.2;85.7
74484;SHT31;62942;52.462;10.846;2024-03-22T05:20:35;9.2;85.7
74484;SHT31;62942;52.462;10.846;2024-03-22T05:21:35;9.2;85.7
74484;SHT31;62942;52.462;10.846;2024-03-22T05:22:36;9.2;85.8
74484;SHT31;62942;52.462;10.846;2024-03-22T05:23:45;9.2;85.7
74484;SHT31;62942;52.462;10.846;2024-03-22T05:24:45;9.2;85.7
74484;SHT31;62942;52.462;10.846;2024-03-22T05:25:45;9.3;85.7
74484;SHT31;62942;52.462;10.846;2024-03-22T05:26:55;9.2;85.7
74484;SHT31;62942;52.462;10.846;2024-03-22T05:28:05;9.3;85.7
74484;SHT31;62942;52.462;10.846;2024-03-22T05:29:05;9.3;85.7
74484;SHT31;62942;52.462;10.846;2024-03-22T05:30:15;9.3;85.7
74484;SHT31;62942;52.462;10.846;2024-03-22T05:31:25;9.3;85.7
74484;SHT31;62942;52.462;10.846;2024-03-22T05:32:35;9.3;85.6
74484;SHT31;62942;52.462;10.846;2024-03-22T05:33:45;9.3;85.7
74484;SHT31;62942;52.462;10.846;2024-03-22T05:34:45;9.3;85.7
74484;SHT31;62942;52.462;10.846;2024-03-22T05:35:55;9.3;85.7
74484;SHT31;62942;52.462;10.846;2024-03-22T05:36:55;9.3;85.7
74484;SHT31;62942;52.462;10.846;2024-03-22T05:37:55;9.3;85.7
74484;SHT31;62942;52.462;10.846;2024-03-22T05:38:55;9.3;85.7
74484;SHT31;62942;52.462;10.846;2024-03-22T05:40:06;9.4;85.6
74484;SHT31;62942;52.462;10.846;2024-03-22T05:41:05;9.4;85.6
74484;SHT31;62942;52.462;10.846;2024-03-22T05:42:05;9.4;85.5
74484;SHT31;62942;52.462;10.846;2024-03-22T05:43:15;9.4;85.5
74484;SHT31;62942;52.462;10.846;2024-03-22T05:44:15;9.4;85.4
74484;SHT31;62942;52.462;10.846;2024-03-22T05:45:15;9.4;85.4
74484;SHT31;62942;52.462;10.846;2024-03-22T05:46:25;9.5;85.3
74484;SHT31;62942;52.462;10.846;2024-03-22T05:47:25;9.5;85.3
74484;SHT31;62942;52.462;10.846;2024-03-22T05:48:35;9.5;85.2
74484;SHT31;62942;52.462;10.846;2024-03-22T05:49:35;9.5;85.2
74484;SHT31;62942;52.462;10.846;2024-03-22T05:50:45;9.5;85.2
74484;SHT31;62942;52.462;10.846;2024-03-22T05:51:45;9.5;85.2
74484;SHT31;62942;52.462;10.846;2024-03-22T05:52:55;9.6;85.2
74484;SHT31;62942;52.462;10.846;2024-03-22T05:54:05;9.6;85.2
74484;SHT31;62942;52.462;10.846;2024-03-22T05:55:15;9.6;85.1
74484;SHT31;62942;52.462;10.846;2024-03-22T05:56:25;9.6;85.1
74484;SHT31;62942;52.462;10.846;2024-03-22T05:57:25;9.6;85.1
74484;SHT31;62942;52.462;10.846;2024-03-22T05:58:35;9.7;85.1
74484;SHT31;62942;52.462;10.846;2024-03-22T05:59:35;9.7;85.1
74484;SHT31;62942;52.462;10.846;2024-03-22T06:00:35;9.7;85
74484;SHT31;62942;52.462;10.846;2024-03-22T06:01:35;9.7;84.9
74484;SHT31;62942;52.462;10.846;2024-03-22T06:02:35;9.7;84.9
74484;SHT31;62942;52.462;10.846;2024-03-22T06:03:45;9.7;84.8
74484;SHT31;62942;52.462;10.846;2024-03-22T06:04:45;9.8;84.8
74484;SHT31;62942;52.462;10.846;2024-03-22T06:05:45;9.8;84.7
74484;SHT31;62942;52.462;10.846;2024-03-22T06:06:55;9.8;84.5
74484;SHT31;62942;52.462;10.846;2024-03-22T06:08:05;9.9;84.4
74484;SHT31;62942;52.462;10.846;2024-03-22T06:09:05;9.9;84.4
74484;SHT31;62942;52.462;10.846;2024-03-22T06:10:06;9.9;84.4
74484;SHT31;62942;52.462;10.846;2024-03-22T06:11:15;9.9;84.3
74484;SHT31;62942;52.462;10.846;2024-03-22T06:12:25;9.9;84.3
74484;SHT31;62942;52.462;10.846;2024-03-22T06:13:25;10;84.2
74484;SHT31;62942;52.462;10.846;2024-03-22T06:14:35;10;84.2
74484;SHT31;62942;52.462;10.846;2024-03-22T06:15:35;10;84.2
74484;SHT31;62942;52.462;10.846;2024-03-22T06:16:45;10;84.2
74484;SHT31;62942;52.462;10.846;2024-03-22T06:17:45;10.1;84.2
74484;SHT31;62942;52.462;10.846;2024-03-22T06:18:55;10.1;84.1
74484;SHT31;62942;52.462;10.846;2024-03-22T06:19:55;10;84.1
74484;SHT31;62942;52.462;10.846;2024-03-22T06:21:05;10.1;84
74484;SHT31;62942;52.462;10.846;2024-03-22T06:22:15;10.1;84
74484;SHT31;62942;52.462;10.846;2024-03-22T06:23:25;10.1;84
74484;SHT31;62942;52.462;10.846;2024-03-22T06:24:35;10.2;84
74484;SHT31;62942;52.462;10.846;2024-03-22T06:25:50;10.2;84
74484;SHT31;62942;52.462;10.846;2024-03-22T06:26:45;10.2;83.9
74484;SHT31;62942;52.462;10.846;2024-03-22T06:27:55;10.2;83.9
74484;SHT31;62942;52.462;10.846;2024-03-22T06:29:05;10.3;83.6
74484;SHT31;62942;52.462;10.846;2024-03-22T06:30:15;10.3;83.6
74484;SHT31;62942;52.462;10.846;2024-03-22T06:31:25;10.4;83.6
74484;SHT31;62942;52.462;10.846;2024-03-22T06:32:25;10.4;83.6
74484;SHT31;62942;52.462;10.846;2024-03-22T06:33:35;10.4;83.5
74484;SHT31;62942;52.462;10.846;2024-03-22T06:34:35;10.4;83.4
74484;SHT31;62942;52.462;10.846;2024-03-22T06:35:45;10.5;83.5
74484;SHT31;62942;52.462;10.846;2024-03-22T06:36:45;10.5;83.4
74484;SHT31;62942;52.462;10.846;2024-03-22T06:37:55;10.6;83.3
74484;SHT31;62942;52.462;10.846;2024-03-22T06:39:05;10.6;83.2
74484;SHT31;62942;52.462;10.846;2024-03-22T06:40:16;10.6;83
74484;SHT31;62942;52.462;10.846;2024-03-22T06:41:15;10.7;82.9
74484;SHT31;62942;52.462;10.846;2024-03-22T06:42:25;10.7;82.9
74484;SHT31;62942;52.462;10.846;2024-03-22T06:43:35;10.7;82.9
74484;SHT31;62942;52.462;10.846;2024-03-22T06:44:45;10.7;82.8
74484;SHT31;62942;52.462;10.846;2024-03-22T06:45:55;10.7;82.9
74484;SHT31;62942;52.462;10.846;2024-03-22T06:46:55;10.7;82.9
74484;SHT31;62942;52.462;10.846;2024-03-22T06:48:05;10.7;82.8
74484;SHT31;62942;52.462;10.846;2024-03-22T06:49:15;10.7;82.8
74484;SHT31;62942;52.462;10.846;2024-03-22T06:50:15;10.8;82.9
74484;SHT31;62942;52.462;10.846;2024-03-22T06:51:25;10.7;83
74484;SHT31;62942;52.462;10.846;2024-03-22T06:52:35;10.7;82.9
74484;SHT31;62942;52.462;10.846;2024-03-22T06:53:45;10.8;83
74484;SHT31;62942;52.462;10.846;2024-03-22T06:54:55;10.8;82.9
74484;SHT31;62942;52.462;10.846;2024-03-22T06:56:05;10.8;83
74484;SHT31;62942;52.462;10.846;2024-03-22T06:57:15;10.8;82.9
74484;SHT31;62942;52.462;10.846;2024-03-22T06:58:15;10.8;82.8
74484;SHT31;62942;52.462;10.846;2024-03-22T06:59:25;10.9;82.9
74484;SHT31;62942;52.462;10.846;2024-03-22T07:00:35;10.9;82.5
74484;SHT31;62942;52.462;10.846;2024-03-22T07:01:45;10.9;82.5
74484;SHT31;62942;52.462;10.846;2024-03-22T07:02:55;10.9;82.3
74484;SHT31;62942;52.462;10.846;2024-03-22T07:04:05;10.9;82.4
74484;SHT31;62942;52.462;10.846;2024-03-22T07:05:15;10.9;82.5
74484;SHT31;62942;52.462;10.846;2024-03-22T07:06:25;11;82.5
74484;SHT31;62942;52.462;10.846;2024-03-22T07:07:35;11;82.4
74484;SHT31;62942;52.462;10.846;2024-03-22T07:08:45;11;82.5
74484;SHT31;62942;52.462;10.846;2024-03-22T07:09:45;11;82.3